Time,TemperatureF,DewpointF,PressureIn,WindDirection,WindDirectionDegrees,WindSpeedMPH,WindSpeedGustMPH,Humidity,HourlyPrecipIn,Conditions,Clouds,dailyrainin,SoftwareType,DateUTC
2013-01-19 00:03:00,40.5,28.5,30.19,South,181,1.0,4.0,62,0.00,,---,0.00,VWS V14.01,2013-01-19 06:03:00,
2013-01-19 00:08:00,40.5,28.5,30.19,South,190,0.0,9.0,62,0.00,,---,0.00,VWS V14.01,2013-01-19 06:08:00,
2013-01-19 00:13:00,40.4,28.8,30.19,SSE,159,1.0,9.0,63,0.00,,---,0.00,VWS V14.01,2013-01-19 06:13:00,
2013-01-19 00:18:00,40.2,28.6,30.18,SSE,154,3.0,9.0,63,0.00,,---,0.00,VWS V14.01,2013-01-19 06:18:00,
2013-01-19 00:23:00,40.2,28.6,30.18,South,170,3.0,9.0,63,0.00,,---,0.00,VWS V14.01,2013-01-19 06:23:00,
2013-01-19 00:28:00,40.0,28.4,30.18,SSE,153,5.0,9.0,63,0.00,,---,0.00,VWS V14.01,2013-01-19 06:28:00,
2013-01-19 00:33:00,39.9,28.7,30.18,SSE,162,3.0,6.0,64,0.00,,---,0.00,VWS V14.01,2013-01-19 06:33:00,
2013-01-19 00:38:00,39.8,28.6,30.18,SSE,158,1.0,6.0,64,0.00,,---,0.00,VWS V14.01,2013-01-19 06:38:00,
2013-01-19 00:43:00,39.6,28.4,30.18,South,170,0.0,6.0,64,0.00,,---,0.00,VWS V14.01,2013-01-19 06:43:00,
2013-01-19 00:48:00,39.3,28.5,30.19,South,172,0.0,6.0,65,0.00,,---,0.00,VWS V14.01,2013-01-19 06:48:00,
2013-01-19 00:53:00,39.2,28.4,30.19,South,169,3.0,6.0,65,0.00,,---,0.00,VWS V14.01,2013-01-19 06:53:00,
2013-01-19 00:58:00,39.1,28.3,30.19,South,178,4.0,6.0,65,0.00,,---,0.00,VWS V14.01,2013-01-19 06:58:00,
2013-01-19 01:03:00,39.0,28.2,30.18,SSW,198,0.0,3.0,65,0.00,,---,0.00,VWS V14.01,2013-01-19 07:03:00,
2013-01-19 01:08:00,38.8,28.4,30.18,South,173,0.0,6.0,66,0.00,,---,0.00,VWS V14.01,2013-01-19 07:08:00,
2013-01-19 01:13:00,38.7,28.3,30.18,South,173,2.0,6.0,66,0.00,,---,0.00,VWS V14.01,2013-01-19 07:13:00,
2013-01-19 01:18:00,38.6,28.2,30.18,SSE,167,0.0,6.0,66,0.00,,---,0.00,VWS V14.01,2013-01-19 07:18:00,
2013-01-19 01:23:00,38.5,28.1,30.18,South,174,0.0,6.0,66,0.00,,---,0.00,VWS V14.01,2013-01-19 07:23:00,
2013-01-19 01:28:00,38.3,28.0,30.18,SSE,161,1.0,6.0,66,0.00,,---,0.00,VWS V14.01,2013-01-19 07:28:00,
2013-01-19 01:33:00,38.2,27.9,30.18,SSE,162,1.0,3.0,66,0.00,,---,0.00,VWS V14.01,2013-01-19 07:33:00,
2013-01-19 01:38:00,38.1,27.8,30.18,South,181,4.0,5.0,66,0.00,,---,0.00,VWS V14.01,2013-01-19 07:38:00,
2013-01-19 01:43:00,38.1,27.8,30.18,SSE,163,2.0,6.0,66,0.00,,---,0.00,VWS V14.01,2013-01-19 07:43:00,
2013-01-19 01:48:00,38.1,27.8,30.18,SSE,166,0.0,6.0,66,0.00,,---,0.00,VWS V14.01,2013-01-19 07:48:00,
2013-01-19 01:53:00,38.0,27.7,30.18,South,175,0.0,6.0,66,0.00,,---,0.00,VWS V14.01,2013-01-19 07:53:00,
2013-01-19 01:58:00,37.9,27.6,30.18,South,173,0.0,6.0,66,0.00,,---,0.00,VWS V14.01,2013-01-19 07:58:00,
2013-01-19 02:03:00,37.7,27.4,30.19,SSW,197,0.0,1.0,66,0.00,,---,0.00,VWS V14.01,2013-01-19 08:03:00,
2013-01-19 02:08:00,37.6,27.3,30.19,SSE,161,1.0,3.0,66,0.00,,---,0.00,VWS V14.01,2013-01-19 08:08:00,
2013-01-19 02:13:00,37.5,27.2,30.19,South,182,1.0,4.0,66,0.00,,---,0.00,VWS V14.01,2013-01-19 08:13:00,
2013-01-19 02:18:00,37.5,27.2,30.18,South,180,0.0,4.0,66,0.00,,---,0.00,VWS V14.01,2013-01-19 08:18:00,
2013-01-19 02:23:00,37.4,27.1,30.18,South,170,0.0,4.0,66,0.00,,---,0.00,VWS V14.01,2013-01-19 08:23:00,
2013-01-19 02:28:00,37.3,27.0,30.18,South,171,0.0,4.0,66,0.00,,---,0.00,VWS V14.01,2013-01-19 08:28:00,
2013-01-19 02:33:00,37.2,27.3,30.18,South,172,0.0,2.0,67,0.00,,---,0.00,VWS V14.01,2013-01-19 08:33:00,
2013-01-19 02:38:00,37.0,27.1,30.18,South,172,0.0,2.0,67,0.00,,---,0.00,VWS V14.01,2013-01-19 08:38:00,
2013-01-19 02:43:00,36.9,27.0,30.18,SSE,165,0.0,2.0,67,0.00,,---,0.00,VWS V14.01,2013-01-19 08:43:00,
2013-01-19 02:48:00,36.8,26.9,30.18,South,177,4.0,4.0,67,0.00,,---,0.00,VWS V14.01,2013-01-19 08:48:00,
2013-01-19 02:53:00,36.8,26.9,30.18,South,182,2.0,4.0,67,0.00,,---,0.00,VWS V14.01,2013-01-19 08:53:00,
2013-01-19 02:58:00,36.8,26.9,30.18,SSE,162,3.0,4.0,67,0.00,,---,0.00,VWS V14.01,2013-01-19 08:58:00,
2013-01-19 03:03:00,36.9,27.0,30.18,SSE,161,1.0,4.0,67,0.00,,---,0.00,VWS V14.01,2013-01-19 09:03:00,
2013-01-19 03:08:00,36.8,26.9,30.18,SSE,162,4.0,5.0,67,0.00,,---,0.00,VWS V14.01,2013-01-19 09:08:00,
2013-01-19 03:13:00,36.7,26.8,30.18,SSE,159,0.0,5.0,67,0.00,,---,0.00,VWS V14.01,2013-01-19 09:13:00,
2013-01-19 03:18:00,36.7,26.8,30.17,SSE,156,4.0,5.0,67,0.00,,---,0.00,VWS V14.01,2013-01-19 09:18:00,
2013-01-19 03:23:00,36.8,26.9,30.17,South,177,0.0,6.0,67,0.00,,---,0.00,VWS V14.01,2013-01-19 09:23:00,
2013-01-19 03:28:00,36.7,26.8,30.17,SE,143,0.0,6.0,67,0.00,,---,0.00,VWS V14.01,2013-01-19 09:28:00,
2013-01-19 03:33:00,36.7,26.8,30.16,South,191,0.0,4.0,67,0.00,,---,0.00,VWS V14.01,2013-01-19 09:33:00,
2013-01-19 03:38:00,36.8,26.9,30.16,SSE,160,4.0,10.0,67,0.00,,---,0.00,VWS V14.01,2013-01-19 09:38:00,
2013-01-19 03:43:00,37.0,27.1,30.16,South,176,2.0,10.0,67,0.00,,---,0.00,VWS V14.01,2013-01-19 09:43:00,
2013-01-19 03:48:00,37.2,27.3,30.16,SSW,192,2.0,10.0,67,0.00,,---,0.00,VWS V14.01,2013-01-19 09:48:00,
2013-01-19 03:53:00,37.2,27.3,30.16,South,170,3.0,10.0,67,0.00,,---,0.00,VWS V14.01,2013-01-19 09:53:00,
2013-01-19 03:58:00,37.2,27.3,30.16,SSW,210,4.0,10.0,67,0.00,,---,0.00,VWS V14.01,2013-01-19 09:58:00,
2013-01-19 04:04:00,37.3,27.4,30.15,SSW,210,3.0,5.0,67,0.00,,---,0.00,VWS V14.01,2013-01-19 10:04:00,
2013-01-19 04:08:00,37.4,27.5,30.15,SSE,168,2.0,11.0,67,0.00,,---,0.00,VWS V14.01,2013-01-19 10:08:00,
2013-01-19 04:13:00,37.4,27.8,30.15,South,179,2.0,11.0,68,0.00,,---,0.00,VWS V14.01,2013-01-19 10:13:00,
2013-01-19 04:18:00,37.4,27.8,30.15,South,169,0.0,11.0,68,0.00,,---,0.00,VWS V14.01,2013-01-19 10:18:00,
2013-01-19 04:23:00,37.4,27.8,30.15,South,175,1.0,11.0,68,0.00,,---,0.00,VWS V14.01,2013-01-19 10:23:00,
2013-01-19 04:28:00,37.6,28.0,30.15,South,184,3.0,11.0,68,0.00,,---,0.00,VWS V14.01,2013-01-19 10:28:00,
2013-01-19 04:33:00,37.6,28.0,30.15,SW,217,3.0,3.0,68,0.00,,---,0.00,VWS V14.01,2013-01-19 10:33:00,
2013-01-19 04:38:00,37.5,28.3,30.15,SSW,199,0.0,7.0,69,0.00,,---,0.00,VWS V14.01,2013-01-19 10:38:00,
2013-01-19 04:43:00,37.6,28.4,30.15,SSE,161,4.0,7.0,69,0.00,,---,0.00,VWS V14.01,2013-01-19 10:43:00,
2013-01-19 04:49:00,37.7,28.5,30.15,SSW,202,0.0,10.0,69,0.00,,---,0.00,VWS V14.01,2013-01-19 10:49:00,
2013-01-19 04:54:00,37.6,28.4,30.15,South,189,0.0,10.0,69,0.00,,---,0.00,VWS V14.01,2013-01-19 10:54:00,
2013-01-19 04:59:00,37.6,28.4,30.15,SSE,167,4.0,10.0,69,0.00,,---,0.00,VWS V14.01,2013-01-19 10:59:00,
2013-01-19 05:04:00,37.6,28.4,30.15,South,178,1.0,9.0,69,0.00,,---,0.00,VWS V14.01,2013-01-19 11:04:00,
2013-01-19 05:09:00,37.7,28.5,30.15,South,175,1.0,9.0,69,0.00,,---,0.00,VWS V14.01,2013-01-19 11:09:00,
2013-01-19 05:14:00,37.6,28.4,30.15,South,175,0.0,9.0,69,0.00,,---,0.00,VWS V14.01,2013-01-19 11:14:00,
2013-01-19 06:47:00,38.5,29.6,30.16,SSW,192,1.0,11.0,70,0.00,,---,0.00,VWS V14.01,2013-01-19 12:47:00,
2013-01-19 06:48:00,38.5,29.2,30.16,SSW,193,0.0,11.0,69,0.00,,---,0.00,VWS V14.01,2013-01-19 12:48:00,
2013-01-19 06:53:00,38.6,29.7,30.16,South,188,4.0,12.0,70,0.00,,---,0.00,VWS V14.01,2013-01-19 12:53:00,
2013-01-19 06:58:00,38.6,29.7,30.16,SSE,163,1.0,12.0,70,0.00,,---,0.00,VWS V14.01,2013-01-19 12:58:00,
2013-01-19 07:03:00,38.6,29.7,30.16,SSW,196,2.0,12.0,70,0.00,,---,0.00,VWS V14.01,2013-01-19 13:03:00,
2013-01-19 07:08:00,38.6,29.3,30.16,SSW,196,0.0,12.0,69,0.00,,---,0.00,VWS V14.01,2013-01-19 13:08:00,
2013-01-19 07:13:00,38.5,29.6,30.16,SW,236,0.0,12.0,70,0.00,,---,0.00,VWS V14.01,2013-01-19 13:13:00,
2013-01-19 07:18:00,38.5,29.6,30.16,WSW,245,2.0,12.0,70,0.00,,---,0.00,VWS V14.01,2013-01-19 13:18:00,
2013-01-19 07:23:00,38.7,29.8,30.16,South,173,6.0,12.0,70,0.00,,---,0.00,VWS V14.01,2013-01-19 13:23:00,
2013-01-19 07:28:00,38.8,29.9,30.16,WSW,246,0.0,12.0,70,0.00,,---,0.00,VWS V14.01,2013-01-19 13:28:00,
2013-01-19 07:33:00,39.0,30.1,30.16,SW,217,4.0,6.0,70,0.00,,---,0.00,VWS V14.01,2013-01-19 13:33:00,
2013-01-19 07:38:00,39.1,29.8,30.16,West,266,1.0,6.0,69,0.00,,---,0.00,VWS V14.01,2013-01-19 13:38:00,
2013-01-19 07:43:00,39.2,29.9,30.16,SSW,196,2.0,7.0,69,0.00,,---,0.00,VWS V14.01,2013-01-19 13:43:00,
2013-01-19 07:48:00,39.3,30.0,30.15,SSW,192,1.0,7.0,69,0.00,,---,0.00,VWS V14.01,2013-01-19 13:48:00,
2013-01-19 07:53:00,39.6,30.3,30.15,SSW,198,0.0,12.0,69,0.00,,---,0.00,VWS V14.01,2013-01-19 13:53:00,
2013-01-19 07:58:00,39.8,30.5,30.15,SW,226,2.0,12.0,69,0.00,,---,0.00,VWS V14.01,2013-01-19 13:58:00,
2013-01-19 08:03:00,40.1,30.4,30.15,SSE,161,3.0,6.0,68,0.00,,---,0.00,VWS V14.01,2013-01-19 14:03:00,
2013-01-19 08:08:00,40.4,30.7,30.15,South,182,0.0,6.0,68,0.00,,---,0.00,VWS V14.01,2013-01-19 14:08:00,
2013-01-19 08:13:00,40.6,30.9,30.15,South,180,1.0,9.0,68,0.00,,---,0.00,VWS V14.01,2013-01-19 14:13:00,
2013-01-19 08:18:00,40.9,30.8,30.15,SW,219,1.0,10.0,67,0.00,,---,0.00,VWS V14.01,2013-01-19 14:18:00,
2013-01-19 08:23:00,41.2,31.1,30.15,South,188,1.0,10.0,67,0.00,,---,0.00,VWS V14.01,2013-01-19 14:23:00,
2013-01-19 08:28:00,41.6,31.1,30.15,WSW,258,3.0,11.0,66,0.00,,---,0.00,VWS V14.01,2013-01-19 14:28:00,
2013-01-19 08:33:00,42.0,31.5,30.15,SSW,211,6.0,6.0,66,0.00,,---,0.00,VWS V14.01,2013-01-19 14:33:00,
2013-01-19 08:38:00,42.3,31.4,30.15,SW,226,2.0,10.0,65,0.00,,---,0.00,VWS V14.01,2013-01-19 14:38:00,
2013-01-19 08:43:00,42.5,31.6,30.15,WSW,249,3.0,10.0,65,0.00,,---,0.00,VWS V14.01,2013-01-19 14:43:00,
2013-01-19 08:48:00,42.8,31.5,30.15,SSW,202,3.0,12.0,64,0.00,,---,0.00,VWS V14.01,2013-01-19 14:48:00,
2013-01-19 08:53:00,43.1,31.8,30.15,WSW,246,6.0,12.0,64,0.00,,---,0.00,VWS V14.01,2013-01-19 14:53:00,
2013-01-19 08:58:00,43.3,32.0,30.15,WSW,250,11.0,12.0,64,0.00,,---,0.00,VWS V14.01,2013-01-19 14:58:00,
2013-01-19 09:03:00,43.6,31.9,30.15,WSW,239,2.0,9.0,63,0.00,,---,0.00,VWS V14.01,2013-01-19 15:03:00,
2013-01-19 09:08:00,43.9,32.1,30.15,SW,227,4.0,11.0,63,0.00,,---,0.00,VWS V14.01,2013-01-19 15:08:00,
2013-01-19 09:13:00,44.1,31.9,30.15,SSW,200,9.0,12.0,62,0.00,,---,0.00,VWS V14.01,2013-01-19 15:13:00,
2013-01-19 09:18:00,44.5,32.3,30.15,SW,229,5.0,12.0,62,0.00,,---,0.00,VWS V14.01,2013-01-19 15:18:00,
2013-01-19 09:23:00,44.8,32.2,30.15,SW,216,15.0,15.0,61,0.00,,---,0.00,VWS V14.01,2013-01-19 15:23:00,
2013-01-19 09:28:00,45.0,32.4,30.15,SW,219,11.0,16.0,61,0.00,,---,0.00,VWS V14.01,2013-01-19 15:28:00,
2013-01-19 09:33:00,45.3,32.7,30.15,SW,225,7.0,10.0,61,0.00,,---,0.00,VWS V14.01,2013-01-19 15:33:00,
2013-01-19 09:38:00,45.8,32.7,30.15,SE,145,6.0,10.0,60,0.00,,---,0.00,VWS V14.01,2013-01-19 15:38:00,
2013-01-19 09:43:00,46.4,32.9,30.15,WSW,247,10.0,15.0,59,0.00,,---,0.00,VWS V14.01,2013-01-19 15:43:00,
2013-01-19 09:48:00,46.7,33.2,30.15,SW,234,9.0,15.0,59,0.00,,---,0.00,VWS V14.01,2013-01-19 15:48:00,
2013-01-19 09:53:00,47.2,33.6,30.15,West,267,5.0,15.0,59,0.00,,---,0.00,VWS V14.01,2013-01-19 15:53:00,
2013-01-19 09:58:00,47.8,33.8,30.15,SSW,200,4.0,15.0,58,0.00,,---,0.00,VWS V14.01,2013-01-19 15:58:00,
2013-01-19 10:03:00,48.3,33.8,30.14,SW,234,6.0,14.0,57,0.00,,---,0.00,VWS V14.01,2013-01-19 16:03:00,
2013-01-19 10:08:00,48.7,33.7,30.14,SW,234,4.0,14.0,56,0.00,,---,0.00,VWS V14.01,2013-01-19 16:08:00,
2013-01-19 10:13:00,49.0,33.1,30.14,SW,227,5.0,15.0,54,0.00,,---,0.00,VWS V14.01,2013-01-19 16:13:00,
2013-01-19 10:18:00,49.2,33.3,30.14,SSW,213,12.0,18.0,54,0.00,,---,0.00,VWS V14.01,2013-01-19 16:18:00,
2013-01-19 10:23:00,49.4,33.0,30.14,West,262,14.0,19.0,53,0.00,,---,0.00,VWS V14.01,2013-01-19 16:23:00,
2013-01-19 10:28:00,49.4,33.0,30.14,WSW,239,12.0,19.0,53,0.00,,---,0.00,VWS V14.01,2013-01-19 16:28:00,
2013-01-19 10:33:00,49.6,33.2,30.13,WSW,244,11.0,15.0,53,0.00,,---,0.00,VWS V14.01,2013-01-19 16:33:00,
2013-01-19 10:38:00,49.9,33.5,30.13,West,263,5.0,15.0,53,0.00,,---,0.00,VWS V14.01,2013-01-19 16:38:00,
2013-01-19 10:43:00,50.2,33.7,30.13,SW,220,4.0,15.0,53,0.00,,---,0.00,VWS V14.01,2013-01-19 16:43:00,
2013-01-19 10:48:00,50.5,33.5,30.12,SW,223,10.0,15.0,52,0.00,,---,0.00,VWS V14.01,2013-01-19 16:48:00,
2013-01-19 10:53:00,50.6,33.2,30.12,SW,226,12.0,18.0,51,0.00,,---,0.00,VWS V14.01,2013-01-19 16:53:00,
2013-01-19 10:58:00,50.7,33.7,30.12,South,188,9.0,18.0,52,0.00,,---,0.00,VWS V14.01,2013-01-19 16:58:00,
2013-01-19 11:03:00,50.9,33.9,30.11,South,188,2.0,8.0,52,0.00,,---,0.00,VWS V14.01,2013-01-19 17:03:00,
2013-01-19 11:09:00,51.2,33.7,30.11,WSW,242,7.0,15.0,51,0.00,,---,0.00,VWS V14.01,2013-01-19 17:09:00,
2013-01-19 11:14:00,51.3,33.8,30.11,SW,222,10.0,15.0,51,0.00,,---,0.00,VWS V14.01,2013-01-19 17:14:00,
2013-01-19 11:19:00,51.5,34.0,30.10,SW,225,7.0,16.0,51,0.00,,---,0.00,VWS V14.01,2013-01-19 17:19:00,
2013-01-19 11:24:00,52.0,34.5,30.10,SW,216,5.0,16.0,51,0.00,,---,0.00,VWS V14.01,2013-01-19 17:24:00,
2013-01-19 11:29:00,52.4,34.3,30.10,SW,235,9.0,16.0,50,0.00,,---,0.00,VWS V14.01,2013-01-19 17:29:00,
2013-01-19 11:35:00,52.7,34.6,30.08,SSW,205,4.0,13.0,50,0.00,,---,0.00,VWS V14.01,2013-01-19 17:35:00,
2013-01-19 11:40:00,53.2,35.1,30.08,West,274,8.0,14.0,50,0.00,,---,0.00,VWS V14.01,2013-01-19 17:40:00,
2013-01-19 11:45:00,53.5,33.8,30.08,West,273,10.0,17.0,47,0.00,,---,0.00,VWS V14.01,2013-01-19 17:45:00,
2013-01-19 11:50:00,53.6,33.9,30.07,SSW,211,6.0,17.0,47,0.00,,---,0.00,VWS V14.01,2013-01-19 17:50:00,
2013-01-19 11:55:00,53.5,33.8,30.07,SW,236,7.0,17.0,47,0.00,,---,0.00,VWS V14.01,2013-01-19 17:55:00,
2013-01-19 12:00:00,53.6,33.9,30.07,WSW,250,11.0,22.0,47,0.00,,---,0.00,VWS V14.01,2013-01-19 18:00:00,
2013-01-19 12:05:00,53.9,34.2,30.06,WSW,240,5.0,11.0,47,0.00,,---,0.00,VWS V14.01,2013-01-19 18:05:00,
2013-01-19 12:10:00,54.5,34.7,30.06,West,275,9.0,13.0,47,0.00,,---,0.00,VWS V14.01,2013-01-19 18:10:00,
2013-01-19 12:15:00,54.5,34.7,30.06,SSW,208,6.0,14.0,47,0.00,,---,0.00,VWS V14.01,2013-01-19 18:15:00,
2013-01-19 12:21:00,54.5,34.7,30.05,West,259,10.0,14.0,47,0.00,,---,0.00,VWS V14.01,2013-01-19 18:21:00,
2013-01-19 12:26:00,54.2,34.4,30.05,WSW,244,7.0,17.0,47,0.00,,---,0.00,VWS V14.01,2013-01-19 18:26:00,
2013-01-19 12:32:00,54.3,35.0,30.05,WSW,247,11.0,11.0,48,0.00,,---,0.00,VWS V14.01,2013-01-19 18:32:00,
2013-01-19 12:37:00,54.4,35.1,30.05,SW,232,11.0,15.0,48,0.00,,---,0.00,VWS V14.01,2013-01-19 18:37:00,
2013-01-19 12:42:00,54.6,35.3,30.05,SW,227,6.0,15.0,48,0.00,,---,0.00,VWS V14.01,2013-01-19 18:42:00,
2013-01-19 12:47:00,54.9,35.1,30.04,WSW,251,7.0,15.0,47,0.00,,---,0.00,VWS V14.01,2013-01-19 18:47:00,
2013-01-19 12:52:00,55.2,35.9,30.04,SW,234,7.0,15.0,48,0.00,,---,0.00,VWS V14.01,2013-01-19 18:52:00,
2013-01-19 12:57:00,55.5,35.6,30.04,SSW,213,9.0,16.0,47,0.00,,---,0.00,VWS V14.01,2013-01-19 18:57:00,
2013-01-19 13:02:00,55.1,35.2,30.04,SW,215,5.0,12.0,47,0.00,,---,0.00,VWS V14.01,2013-01-19 19:02:00,
2013-01-19 13:07:00,55.1,35.8,30.04,SW,223,6.0,18.0,48,0.00,,---,0.00,VWS V14.01,2013-01-19 19:07:00,
2013-01-19 13:12:00,55.2,35.9,30.04,SW,219,11.0,18.0,48,0.00,,---,0.00,VWS V14.01,2013-01-19 19:12:00,
2013-01-19 13:18:00,55.3,36.0,30.03,West,267,12.0,19.0,48,0.00,,---,0.00,VWS V14.01,2013-01-19 19:18:00,
2013-01-19 13:23:00,55.4,36.1,30.03,SW,234,7.0,19.0,48,0.00,,---,0.00,VWS V14.01,2013-01-19 19:23:00,
2013-01-19 13:28:00,55.5,35.6,30.03,SSW,209,3.0,19.0,47,0.00,,---,0.00,VWS V14.01,2013-01-19 19:28:00,
2013-01-19 13:33:00,55.8,35.9,30.02,SSW,200,7.0,13.0,47,0.00,,---,0.00,VWS V14.01,2013-01-19 19:33:00,
2013-01-19 13:38:00,55.9,36.0,30.02,West,271,10.0,16.0,47,0.00,,---,0.00,VWS V14.01,2013-01-19 19:38:00,
2013-01-19 13:43:00,56.0,36.1,30.02,WSW,238,12.0,16.0,47,0.00,,---,0.00,VWS V14.01,2013-01-19 19:43:00,
2013-01-19 13:48:00,56.1,36.2,30.01,SSW,205,4.0,16.0,47,0.00,,---,0.00,VWS V14.01,2013-01-19 19:48:00,
2013-01-19 13:53:00,56.3,36.3,30.01,SW,234,10.0,20.0,47,0.00,,---,0.00,VWS V14.01,2013-01-19 19:53:00,
2013-01-19 13:58:00,56.3,35.8,30.01,SSW,205,6.0,20.0,46,0.00,,---,0.00,VWS V14.01,2013-01-19 19:58:00,
2013-01-19 14:03:00,56.2,35.7,30.00,SW,217,5.0,14.0,46,0.00,,---,0.00,VWS V14.01,2013-01-19 20:03:00,
2013-01-19 14:08:00,56.2,36.3,30.00,SW,216,13.0,14.0,47,0.00,,---,0.00,VWS V14.01,2013-01-19 20:08:00,
2013-01-19 14:14:00,56.3,36.3,30.00,SW,226,7.0,14.0,47,0.00,,---,0.00,VWS V14.01,2013-01-19 20:14:00,
2013-01-19 14:19:00,56.5,36.5,30.00,SW,220,5.0,14.0,47,0.00,,---,0.00,VWS V14.01,2013-01-19 20:19:00,
2013-01-19 14:24:00,56.6,36.6,30.00,SW,233,9.0,15.0,47,0.00,,---,0.00,VWS V14.01,2013-01-19 20:24:00,
2013-01-19 14:29:00,56.6,36.1,30.00,WSW,247,7.0,15.0,46,0.00,,---,0.00,VWS V14.01,2013-01-19 20:29:00,
2013-01-19 14:34:00,56.7,36.7,30.00,SSW,213,4.0,7.0,47,0.00,,---,0.00,VWS V14.01,2013-01-19 20:34:00,
2013-01-19 14:39:00,56.9,36.3,30.00,West,263,10.0,15.0,46,0.00,,---,0.00,VWS V14.01,2013-01-19 20:39:00,
2013-01-19 14:44:00,56.7,36.2,30.00,WSW,244,7.0,17.0,46,0.00,,---,0.00,VWS V14.01,2013-01-19 20:44:00,
2013-01-19 14:49:00,56.4,36.4,30.00,SSW,196,3.0,17.0,47,0.00,,---,0.00,VWS V14.01,2013-01-19 20:49:00,
2013-01-19 14:54:00,56.6,36.6,30.00,SW,219,5.0,17.0,47,0.00,,---,0.00,VWS V14.01,2013-01-19 20:54:00,
2013-01-19 14:59:00,56.5,36.0,30.00,SSW,202,6.0,17.0,46,0.00,,---,0.00,VWS V14.01,2013-01-19 20:59:00,
2013-01-19 15:04:00,56.3,35.8,29.99,SSW,209,6.0,15.0,46,0.00,,---,0.00,VWS V14.01,2013-01-19 21:04:00,
2013-01-19 15:09:00,56.2,35.7,29.99,SW,230,6.0,19.0,46,0.00,,---,0.00,VWS V14.01,2013-01-19 21:09:00,
2013-01-19 15:14:00,56.1,35.6,29.99,SW,223,10.0,19.0,46,0.00,,---,0.00,VWS V14.01,2013-01-19 21:14:00,
2013-01-19 15:19:00,56.0,35.5,29.98,WSW,244,11.0,19.0,46,0.00,,---,0.00,VWS V14.01,2013-01-19 21:19:00,
2013-01-19 15:24:00,56.1,35.6,29.98,SSW,213,2.0,19.0,46,0.00,,---,0.00,VWS V14.01,2013-01-19 21:24:00,
2013-01-19 15:29:00,56.2,35.7,29.98,WNW,284,5.0,19.0,46,0.00,,---,0.00,VWS V14.01,2013-01-19 21:29:00,
2013-01-19 15:34:00,56.2,35.7,29.97,South,188,11.0,14.0,46,0.00,,---,0.00,VWS V14.01,2013-01-19 21:34:00,
2013-01-19 15:39:00,56.0,35.5,29.97,South,191,3.0,16.0,46,0.00,,---,0.00,VWS V14.01,2013-01-19 21:39:00,
2013-01-19 15:44:00,55.9,35.4,29.97,SSW,211,4.0,16.0,46,0.00,,---,0.00,VWS V14.01,2013-01-19 21:44:00,
2013-01-19 15:50:00,56.0,35.5,29.97,SSW,209,6.0,16.0,46,0.00,,---,0.00,VWS V14.01,2013-01-19 21:50:00,
2013-01-19 15:55:00,56.0,36.1,29.97,SW,214,3.0,16.0,47,0.00,,---,0.00,VWS V14.01,2013-01-19 21:55:00,
2013-01-19 16:00:00,56.0,36.1,29.97,SSW,211,6.0,16.0,47,0.00,,---,0.00,VWS V14.01,2013-01-19 22:00:00,
2013-01-19 16:06:00,55.7,35.8,29.98,SSW,201,5.0,15.0,47,0.00,,---,0.00,VWS V14.01,2013-01-19 22:06:00,
2013-01-19 16:11:00,55.5,35.6,29.98,SW,232,9.0,15.0,47,0.00,,---,0.00,VWS V14.01,2013-01-19 22:11:00,
2013-01-19 16:16:00,55.4,35.5,29.97,South,190,2.0,15.0,47,0.00,,---,0.00,VWS V14.01,2013-01-19 22:16:00,
2013-01-19 16:21:00,55.2,35.9,29.97,SSW,196,2.0,15.0,48,0.00,,---,0.00,VWS V14.01,2013-01-19 22:21:00,
2013-01-19 16:26:00,55.0,35.7,29.97,SSW,194,6.0,15.0,48,0.00,,---,0.00,VWS V14.01,2013-01-19 22:26:00,
2013-01-19 16:31:00,54.8,35.5,29.97,SSW,192,3.0,15.0,48,0.00,,---,0.00,VWS V14.01,2013-01-19 22:31:00,
2013-01-19 16:37:00,54.6,35.3,29.97,SW,215,2.0,11.0,48,0.00,,---,0.00,VWS V14.01,2013-01-19 22:37:00,
2013-01-19 16:42:00,54.3,35.0,29.97,SW,227,5.0,13.0,48,0.00,,---,0.00,VWS V14.01,2013-01-19 22:42:00,
2013-01-19 16:47:00,54.0,34.8,29.97,SSW,209,3.0,13.0,48,0.00,,---,0.00,VWS V14.01,2013-01-19 22:47:00,
2013-01-19 16:53:00,53.8,34.6,29.97,SSW,211,4.0,13.0,48,0.00,,---,0.00,VWS V14.01,2013-01-19 22:53:00,
2013-01-19 16:58:00,53.5,34.3,29.97,SSW,211,1.0,13.0,48,0.00,,---,0.00,VWS V14.01,2013-01-19 22:58:00,
2013-01-19 17:03:00,53.3,34.1,29.96,SW,225,4.0,9.0,48,0.00,,---,0.00,VWS V14.01,2013-01-19 23:03:00,
2013-01-19 17:08:00,53.0,33.8,29.96,West,262,2.0,12.0,48,0.00,,---,0.00,VWS V14.01,2013-01-19 23:08:00,
2013-01-19 17:13:00,52.9,33.8,29.96,SW,234,2.0,12.0,48,0.00,,---,0.00,VWS V14.01,2013-01-19 23:13:00,
2013-01-19 17:18:00,52.8,33.7,29.97,SW,221,5.0,12.0,48,0.00,,---,0.00,VWS V14.01,2013-01-19 23:18:00,
2013-01-19 17:23:00,52.7,33.6,29.97,SW,219,4.0,12.0,48,0.00,,---,0.00,VWS V14.01,2013-01-19 23:23:00,
2013-01-19 17:28:00,52.4,33.3,29.97,South,187,2.0,12.0,48,0.00,,---,0.00,VWS V14.01,2013-01-19 23:28:00,
2013-01-19 17:34:00,52.3,33.2,29.97,SSW,205,2.0,12.0,48,0.00,,---,0.00,VWS V14.01,2013-01-19 23:34:00,
2013-01-19 17:39:00,52.1,33.0,29.97,SSW,201,3.0,12.0,48,0.00,,---,0.00,VWS V14.01,2013-01-19 23:39:00,
2013-01-19 17:44:00,52.0,33.5,29.97,SSW,197,0.0,12.0,49,0.00,,---,0.00,VWS V14.01,2013-01-19 23:44:00,
2013-01-19 17:49:00,51.7,33.2,29.97,SW,217,1.0,12.0,49,0.00,,---,0.00,VWS V14.01,2013-01-19 23:49:00,
2013-01-19 17:54:00,51.4,33.4,29.97,SW,214,1.0,12.0,50,0.00,,---,0.00,VWS V14.01,2013-01-19 23:54:00,
2013-01-19 17:59:00,51.1,33.1,29.97,SW,233,5.0,12.0,50,0.00,,---,0.00,VWS V14.01,2013-01-19 23:59:00,
2013-01-19 18:04:00,51.0,33.0,29.96,SSW,202,3.0,8.0,50,0.00,,---,0.00,VWS V14.01,2013-01-20 00:04:00,
2013-01-19 18:09:00,50.9,32.9,29.96,SSW,198,3.0,12.0,50,0.00,,---,0.00,VWS V14.01,2013-01-20 00:09:00,
2013-01-19 18:14:00,50.7,32.8,29.96,SSW,202,2.0,12.0,50,0.00,,---,0.00,VWS V14.01,2013-01-20 00:14:00,
2013-01-19 18:19:00,50.5,33.1,29.95,SW,217,2.0,12.0,51,0.00,,---,0.00,VWS V14.01,2013-01-20 00:19:00,
2013-01-19 18:24:00,50.3,32.9,29.95,SW,227,4.0,12.0,51,0.00,,---,0.00,VWS V14.01,2013-01-20 00:24:00,
2013-01-19 18:29:00,50.3,32.9,29.95,SSW,213,4.0,12.0,51,0.00,,---,0.00,VWS V14.01,2013-01-20 00:29:00,
2013-01-19 18:34:00,50.3,32.9,29.96,SW,225,2.0,7.0,51,0.00,,---,0.00,VWS V14.01,2013-01-20 00:34:00,
2013-01-19 18:39:00,50.2,32.8,29.96,WSW,242,4.0,7.0,51,0.00,,---,0.00,VWS V14.01,2013-01-20 00:39:00,
2013-01-19 18:44:00,50.3,32.9,29.96,WSW,247,2.0,9.0,51,0.00,,---,0.00,VWS V14.01,2013-01-20 00:44:00,
2013-01-19 18:49:00,50.3,33.4,29.98,WSW,242,0.0,9.0,52,0.00,,---,0.00,VWS V14.01,2013-01-20 00:49:00,
2013-01-19 18:55:00,50.1,32.7,29.98,WSW,248,5.0,9.0,51,0.00,,---,0.00,VWS V14.01,2013-01-20 00:55:00,
2013-01-19 19:00:00,50.2,32.8,29.98,SW,219,0.0,9.0,51,0.00,,---,0.00,VWS V14.01,2013-01-20 01:00:00,
2013-01-19 19:05:00,50.2,32.8,29.99,SW,229,4.0,5.0,51,0.00,,---,0.00,VWS V14.01,2013-01-20 01:05:00,
2013-01-19 19:10:00,50.2,32.8,29.99,WSW,246,2.0,9.0,51,0.00,,---,0.00,VWS V14.01,2013-01-20 01:10:00,
2013-01-19 19:15:00,50.2,32.8,29.99,WSW,241,5.0,11.0,51,0.00,,---,0.00,VWS V14.01,2013-01-20 01:15:00,
2013-01-19 19:20:00,50.0,32.6,29.99,WSW,250,3.0,11.0,51,0.00,,---,0.00,VWS V14.01,2013-01-20 01:20:00,
2013-01-19 19:25:00,49.9,33.0,29.99,WSW,256,3.0,11.0,52,0.00,,---,0.00,VWS V14.01,2013-01-20 01:25:00,
2013-01-19 19:30:00,49.8,32.9,29.99,WSW,238,2.0,11.0,52,0.00,,---,0.00,VWS V14.01,2013-01-20 01:30:00,
2013-01-19 19:35:00,49.7,32.8,29.99,WSW,239,4.0,10.0,52,0.00,,---,0.00,VWS V14.01,2013-01-20 01:35:00,
2013-01-19 19:40:00,49.7,32.8,29.99,SW,226,3.0,10.0,52,0.00,,---,0.00,VWS V14.01,2013-01-20 01:40:00,
2013-01-19 19:45:00,49.5,32.6,29.99,WSW,243,3.0,10.0,52,0.00,,---,0.00,VWS V14.01,2013-01-20 01:45:00,
2013-01-19 19:50:00,49.5,32.6,30.00,WSW,242,3.0,10.0,52,0.00,,---,0.00,VWS V14.01,2013-01-20 01:50:00,
2013-01-19 19:56:00,49.4,32.5,30.00,WSW,249,2.0,10.0,52,0.00,,---,0.00,VWS V14.01,2013-01-20 01:56:00,
2013-01-19 20:01:00,49.3,32.4,30.00,SW,235,4.0,10.0,52,0.00,,---,0.00,VWS V14.01,2013-01-20 02:01:00,
2013-01-19 20:06:00,49.3,32.4,30.00,West,275,4.0,11.0,52,0.00,,---,0.00,VWS V14.01,2013-01-20 02:06:00,
2013-01-19 20:11:00,49.2,32.8,30.00,SSW,207,3.0,11.0,53,0.00,,---,0.00,VWS V14.01,2013-01-20 02:11:00,
2013-01-19 20:17:00,49.2,32.8,30.00,SW,232,4.0,11.0,53,0.00,,---,0.00,VWS V14.01,2013-01-20 02:17:00,
2013-01-19 20:21:00,49.0,32.6,30.00,SW,236,1.0,11.0,53,0.00,,---,0.00,VWS V14.01,2013-01-20 02:21:00,
2013-01-19 20:27:00,48.7,32.8,30.00,SW,215,6.0,11.0,54,0.00,,---,0.00,VWS V14.01,2013-01-20 02:27:00,
2013-01-19 20:32:00,48.7,32.8,30.00,WSW,252,7.0,10.0,54,0.00,,---,0.00,VWS V14.01,2013-01-20 02:32:00,
2013-01-19 20:38:00,48.8,32.9,30.00,SW,226,4.0,11.0,54,0.00,,---,0.00,VWS V14.01,2013-01-20 02:38:00,
2013-01-19 20:43:00,48.9,33.0,30.00,SW,217,5.0,11.0,54,0.00,,---,0.00,VWS V14.01,2013-01-20 02:43:00,
2013-01-19 20:48:00,48.8,32.9,30.00,SSW,205,5.0,11.0,54,0.00,,---,0.00,VWS V14.01,2013-01-20 02:48:00,
2013-01-19 20:53:00,48.6,33.2,30.00,South,183,0.0,11.0,55,0.00,,---,0.00,VWS V14.01,2013-01-20 02:53:00,
2013-01-19 20:58:00,48.6,33.2,30.00,SW,234,5.0,12.0,55,0.00,,---,0.00,VWS V14.01,2013-01-20 02:58:00,
2013-01-19 21:03:00,48.7,33.3,30.00,SW,227,6.0,9.0,55,0.00,,---,0.00,VWS V14.01,2013-01-20 03:03:00,
2013-01-19 21:08:00,48.6,33.2,30.00,SSW,197,3.0,10.0,55,0.00,,---,0.00,VWS V14.01,2013-01-20 03:08:00,
2013-01-19 21:13:00,48.6,33.6,30.00,WSW,252,2.0,14.0,56,0.00,,---,0.00,VWS V14.01,2013-01-20 03:13:00,
2013-01-19 21:18:00,48.4,33.4,30.01,SW,225,3.0,14.0,56,0.00,,---,0.00,VWS V14.01,2013-01-20 03:18:00,
2013-01-19 21:23:00,48.3,33.3,30.01,SW,228,10.0,14.0,56,0.00,,---,0.00,VWS V14.01,2013-01-20 03:23:00,
2013-01-19 21:28:00,48.2,33.7,30.01,SW,235,8.0,14.0,57,0.00,,---,0.00,VWS V14.01,2013-01-20 03:28:00,
2013-01-19 21:33:00,48.0,33.9,30.01,SW,236,4.0,5.0,58,0.00,,---,0.00,VWS V14.01,2013-01-20 03:33:00,
2013-01-19 21:38:00,48.0,33.9,30.01,WSW,246,4.0,13.0,58,0.00,,---,0.00,VWS V14.01,2013-01-20 03:38:00,
2013-01-19 21:43:00,47.9,33.8,30.01,SW,233,10.0,13.0,58,0.00,,---,0.00,VWS V14.01,2013-01-20 03:43:00,
2013-01-19 21:48:00,47.8,33.8,30.01,SSW,212,4.0,13.0,58,0.00,,---,0.00,VWS V14.01,2013-01-20 03:48:00,
2013-01-19 21:53:00,47.7,33.7,30.01,West,270,3.0,13.0,58,0.00,,---,0.00,VWS V14.01,2013-01-20 03:53:00,
2013-01-19 21:58:00,47.6,33.6,30.01,SW,225,6.0,13.0,58,0.00,,---,0.00,VWS V14.01,2013-01-20 03:58:00,
2013-01-19 22:03:00,47.6,34.0,30.01,SW,221,6.0,9.0,59,0.00,,---,0.00,VWS V14.01,2013-01-20 04:03:00,
2013-01-19 22:08:00,47.5,33.9,30.01,West,262,3.0,13.0,59,0.00,,---,0.00,VWS V14.01,2013-01-20 04:08:00,
2013-01-19 22:13:00,47.4,33.8,30.01,SW,228,14.0,14.0,59,0.00,,---,0.00,VWS V14.01,2013-01-20 04:13:00,
2013-01-19 22:19:00,47.3,34.1,30.01,SW,229,6.0,14.0,60,0.00,,---,0.00,VWS V14.01,2013-01-20 04:19:00,
2013-01-19 22:24:00,47.2,34.0,30.01,SSW,202,5.0,14.0,60,0.00,,---,0.00,VWS V14.01,2013-01-20 04:24:00,
2013-01-19 22:29:00,47.1,33.9,30.01,SW,221,7.0,14.0,60,0.00,,---,0.00,VWS V14.01,2013-01-20 04:29:00,
2013-01-19 22:34:00,47.1,34.4,30.01,WSW,238,7.0,7.0,61,0.00,,---,0.00,VWS V14.01,2013-01-20 04:34:00,
2013-01-19 22:39:00,47.0,34.3,30.01,SSW,206,5.0,9.0,61,0.00,,---,0.00,VWS V14.01,2013-01-20 04:39:00,
2013-01-19 22:44:00,46.9,34.2,30.01,WSW,237,9.0,11.0,61,0.00,,---,0.00,VWS V14.01,2013-01-20 04:44:00,
2013-01-19 22:49:00,46.7,34.4,30.01,West,270,6.0,11.0,62,0.00,,---,0.00,VWS V14.01,2013-01-20 04:49:00,
2013-01-19 22:54:00,46.5,34.2,30.01,WSW,245,8.0,12.0,62,0.00,,---,0.00,VWS V14.01,2013-01-20 04:54:00,
2013-01-19 22:59:00,46.4,34.5,30.01,WSW,248,8.0,12.0,63,0.00,,---,0.00,VWS V14.01,2013-01-20 04:59:00,
2013-01-19 23:00:00,46.4,34.5,30.01,SW,223,6.0,12.0,63,0.00,,---,0.00,VWS V14.01,2013-01-20 05:00:00,
2013-01-19 23:01:00,46.4,34.5,30.00,SW,230,6.0,12.0,63,0.00,,---,0.00,VWS V14.01,2013-01-20 05:01:00,
2013-01-19 23:03:00,46.4,34.5,30.00,West,271,11.0,15.0,63,0.00,,---,0.00,VWS V14.01,2013-01-20 05:03:00,
2013-01-19 23:08:00,46.4,34.5,30.00,WSW,247,7.0,15.0,63,0.00,,---,0.00,VWS V14.01,2013-01-20 05:08:00,
2013-01-19 23:13:00,46.3,34.4,30.00,WSW,241,7.0,15.0,63,0.00,,---,0.00,VWS V14.01,2013-01-20 05:13:00,
2013-01-19 23:18:00,46.2,34.3,30.00,WSW,255,10.0,15.0,63,0.00,,---,0.00,VWS V14.01,2013-01-20 05:18:00,
2013-01-19 23:23:00,46.1,34.2,30.00,WSW,256,4.0,15.0,63,0.00,,---,0.00,VWS V14.01,2013-01-20 05:23:00,
2013-01-19 23:28:00,46.0,34.5,30.00,West,263,7.0,15.0,64,0.00,,---,0.00,VWS V14.01,2013-01-20 05:28:00,
2013-01-19 23:33:00,45.9,34.4,30.00,WSW,251,5.0,11.0,64,0.00,,---,0.00,VWS V14.01,2013-01-20 05:33:00,
2013-01-19 23:38:00,45.9,34.4,30.00,SW,234,8.0,15.0,64,0.00,,---,0.00,VWS V14.01,2013-01-20 05:38:00,
2013-01-19 23:43:00,45.8,34.3,30.00,WSW,247,10.0,15.0,64,0.00,,---,0.00,VWS V14.01,2013-01-20 05:43:00,
2013-01-19 23:48:00,45.8,34.3,30.01,WSW,240,9.0,15.0,64,0.00,,---,0.00,VWS V14.01,2013-01-20 05:48:00,
2013-01-19 23:53:00,45.7,34.6,30.01,SW,236,9.0,15.0,65,0.00,,---,0.00,VWS V14.01,2013-01-20 05:53:00,
2013-01-19 23:58:00,45.6,34.5,30.01,SW,227,6.0,15.0,65,0.00,,---,0.00,VWS V14.01,2013-01-20 05:58:00,